sensor_id;sensor_type;location;lat;lon;timestamp;P1;durP1;ratioP1;P2;durP2;ratioP2
69890;SDS011;57170;43.964;21.262;2023-12-04T00:00:49;33.25;;;24.95;;
69890;SDS011;57170;43.964;21.262;2023-12-04T00:03:15;35.63;;;23.77;;
69890;SDS011;57170;43.964;21.262;2023-12-04T00:05:42;39.70;;;27.05;;
69890;SDS011;57170;43.964;21.262;2023-12-04T00:08:09;31.95;;;24.40;;
69890;SDS011;57170;43.964;21.262;2023-12-04T00:10:36;32.00;;;22.90;;
69890;SDS011;57170;43.964;21.262;2023-12-04T00:13:02;39.78;;;25.35;;
69890;SDS011;57170;43.964;21.262;2023-12-04T00:15:28;30.92;;;23.52;;
69890;SDS011;57170;43.964;21.262;2023-12-04T00:17:54;38.67;;;24.92;;
69890;SDS011;57170;43.964;21.262;2023-12-04T00:20:20;37.30;;;25.20;;
69890;SDS011;57170;43.964;21.262;2023-12-04T00:22:46;31.20;;;22.10;;
69890;SDS011;57170;43.964;21.262;2023-12-04T00:25:13;31.75;;;23.73;;
69890;SDS011;57170;43.964;21.262;2023-12-04T00:27:39;33.97;;;25.83;;
69890;SDS011;57170;43.964;21.262;2023-12-04T00:30:05;29.15;;;20.80;;
69890;SDS011;57170;43.964;21.262;2023-12-04T00:32:32;30.48;;;20.98;;
69890;SDS011;57170;43.964;21.262;2023-12-04T00:34:58;31.25;;;23.40;;
69890;SDS011;57170;43.964;21.262;2023-12-04T00:37:25;31.33;;;21.50;;
69890;SDS011;57170;43.964;21.262;2023-12-04T00:39:52;31.73;;;22.25;;
69890;SDS011;57170;43.964;21.262;2023-12-04T00:42:18;33.10;;;24.00;;
69890;SDS011;57170;43.964;21.262;2023-12-04T00:44:44;41.47;;;24.92;;
69890;SDS011;57170;43.964;21.262;2023-12-04T00:47:10;38.85;;;27.40;;
69890;SDS011;57170;43.964;21.262;2023-12-04T00:49:36;35.83;;;25.73;;
69890;SDS011;57170;43.964;21.262;2023-12-04T00:52:02;31.85;;;22.55;;
69890;SDS011;57170;43.964;21.262;2023-12-04T00:54:29;29.27;;;21.42;;
69890;SDS011;57170;43.964;21.262;2023-12-04T00:56:55;29.38;;;21.00;;
69890;SDS011;57170;43.964;21.262;2023-12-04T00:59:21;35.83;;;24.42;;
69890;SDS011;57170;43.964;21.262;2023-12-04T01:01:47;26.33;;;20.35;;
69890;SDS011;57170;43.964;21.262;2023-12-04T01:04:13;28.80;;;18.70;;
69890;SDS011;57170;43.964;21.262;2023-12-04T01:06:39;26.20;;;19.80;;
69890;SDS011;57170;43.964;21.262;2023-12-04T01:09:05;28.98;;;19.45;;
69890;SDS011;57170;43.964;21.262;2023-12-04T01:11:31;28.20;;;19.95;;
69890;SDS011;57170;43.964;21.262;2023-12-04T01:13:57;29.25;;;19.38;;
69890;SDS011;57170;43.964;21.262;2023-12-04T01:16:23;29.75;;;20.50;;
69890;SDS011;57170;43.964;21.262;2023-12-04T01:18:50;29.40;;;20.00;;
69890;SDS011;57170;43.964;21.262;2023-12-04T01:21:16;30.48;;;21.85;;
69890;SDS011;57170;43.964;21.262;2023-12-04T01:23:42;32.72;;;21.75;;
69890;SDS011;57170;43.964;21.262;2023-12-04T01:26:09;27.02;;;19.67;;
69890;SDS011;57170;43.964;21.262;2023-12-04T01:28:37;33.08;;;23.40;;
69890;SDS011;57170;43.964;21.262;2023-12-04T01:31:03;50.35;;;32.25;;
69890;SDS011;57170;43.964;21.262;2023-12-04T01:33:29;52.25;;;32.70;;
69890;SDS011;57170;43.964;21.262;2023-12-04T01:35:55;33.90;;;22.17;;
69890;SDS011;57170;43.964;21.262;2023-12-04T01:38:21;27.27;;;19.42;;
69890;SDS011;57170;43.964;21.262;2023-12-04T01:40:48;28.13;;;20.90;;
69890;SDS011;57170;43.964;21.262;2023-12-04T01:43:14;33.97;;;21.52;;
69890;SDS011;57170;43.964;21.262;2023-12-04T01:45:40;29.88;;;20.13;;
69890;SDS011;57170;43.964;21.262;2023-12-04T01:48:07;31.02;;;22.13;;
69890;SDS011;57170;43.964;21.262;2023-12-04T01:50:34;27.73;;;19.77;;
69890;SDS011;57170;43.964;21.262;2023-12-04T01:53:00;24.08;;;19.20;;
69890;SDS011;57170;43.964;21.262;2023-12-04T01:55:27;27.80;;;19.33;;
69890;SDS011;57170;43.964;21.262;2023-12-04T01:57:53;30.80;;;21.02;;
69890;SDS011;57170;43.964;21.262;2023-12-04T02:00:21;33.33;;;23.63;;
69890;SDS011;57170;43.964;21.262;2023-12-04T02:02:47;31.08;;;23.02;;
69890;SDS011;57170;43.964;21.262;2023-12-04T02:05:13;30.70;;;21.67;;
69890;SDS011;57170;43.964;21.262;2023-12-04T02:07:40;28.55;;;20.52;;
69890;SDS011;57170;43.964;21.262;2023-12-04T02:10:06;33.28;;;23.20;;
69890;SDS011;57170;43.964;21.262;2023-12-04T02:12:34;34.42;;;22.52;;
69890;SDS011;57170;43.964;21.262;2023-12-04T02:15:00;32.55;;;21.67;;
69890;SDS011;57170;43.964;21.262;2023-12-04T02:17:26;35.53;;;23.40;;
69890;SDS011;57170;43.964;21.262;2023-12-04T02:19:53;36.20;;;23.40;;
69890;SDS011;57170;43.964;21.262;2023-12-04T02:22:20;33.47;;;23.15;;
69890;SDS011;57170;43.964;21.262;2023-12-04T02:24:46;30.20;;;24.45;;
69890;SDS011;57170;43.964;21.262;2023-12-04T02:27:17;31.25;;;23.52;;
69890;SDS011;57170;43.964;21.262;2023-12-04T02:29:47;36.05;;;24.52;;
69890;SDS011;57170;43.964;21.262;2023-12-04T02:32:15;37.40;;;26.30;;
69890;SDS011;57170;43.964;21.262;2023-12-04T02:34:42;49.58;;;26.70;;
69890;SDS011;57170;43.964;21.262;2023-12-04T02:37:10;36.40;;;23.95;;
69890;SDS011;57170;43.964;21.262;2023-12-04T02:39:37;39.05;;;27.10;;
69890;SDS011;57170;43.964;21.262;2023-12-04T02:42:04;36.83;;;25.45;;
69890;SDS011;57170;43.964;21.262;2023-12-04T02:44:30;37.72;;;25.00;;
69890;SDS011;57170;43.964;21.262;2023-12-04T02:46:56;36.28;;;25.15;;
69890;SDS011;57170;43.964;21.262;2023-12-04T02:49:22;37.50;;;25.65;;
69890;SDS011;57170;43.964;21.262;2023-12-04T02:51:48;32.90;;;22.77;;
69890;SDS011;57170;43.964;21.262;2023-12-04T02:54:14;43.92;;;25.48;;
69890;SDS011;57170;43.964;21.262;2023-12-04T02:56:40;36.60;;;23.52;;
69890;SDS011;57170;43.964;21.262;2023-12-04T02:59:06;34.60;;;24.50;;
69890;SDS011;57170;43.964;21.262;2023-12-04T03:01:32;37.65;;;25.15;;
69890;SDS011;57170;43.964;21.262;2023-12-04T03:03:58;64.40;;;38.08;;
69890;SDS011;57170;43.964;21.262;2023-12-04T03:06:25;50.95;;;29.67;;
69890;SDS011;57170;43.964;21.262;2023-12-04T03:08:51;66.78;;;33.20;;
69890;SDS011;57170;43.964;21.262;2023-12-04T03:11:17;82.60;;;44.67;;
69890;SDS011;57170;43.964;21.262;2023-12-04T03:13:43;83.25;;;43.28;;
69890;SDS011;57170;43.964;21.262;2023-12-04T03:16:16;62.95;;;37.78;;
69890;SDS011;57170;43.964;21.262;2023-12-04T03:18:42;76.50;;;38.45;;
69890;SDS011;57170;43.964;21.262;2023-12-04T03:21:08;37.83;;;26.70;;
69890;SDS011;57170;43.964;21.262;2023-12-04T03:23:34;39.08;;;22.88;;
69890;SDS011;57170;43.964;21.262;2023-12-04T03:26:00;33.15;;;22.95;;
69890;SDS011;57170;43.964;21.262;2023-12-04T03:28:26;32.65;;;20.77;;
69890;SDS011;57170;43.964;21.262;2023-12-04T03:30:53;33.20;;;23.05;;
69890;SDS011;57170;43.964;21.262;2023-12-04T03:33:19;51.45;;;31.02;;
69890;SDS011;57170;43.964;21.262;2023-12-04T03:35:45;36.08;;;23.15;;
69890;SDS011;57170;43.964;21.262;2023-12-04T03:38:11;44.33;;;27.27;;
69890;SDS011;57170;43.964;21.262;2023-12-04T03:40:37;37.40;;;25.40;;
69890;SDS011;57170;43.964;21.262;2023-12-04T03:43:03;36.65;;;25.75;;
69890;SDS011;57170;43.964;21.262;2023-12-04T03:45:29;41.10;;;27.88;;
69890;SDS011;57170;43.964;21.262;2023-12-04T03:47:55;47.78;;;30.05;;
69890;SDS011;57170;43.964;21.262;2023-12-04T03:50:21;47.63;;;30.52;;
69890;SDS011;57170;43.964;21.262;2023-12-04T03:52:48;39.13;;;26.83;;
69890;SDS011;57170;43.964;21.262;2023-12-04T03:55:14;37.75;;;25.77;;
69890;SDS011;57170;43.964;21.262;2023-12-04T03:57:40;45.65;;;30.27;;
69890;SDS011;57170;43.964;21.262;2023-12-04T04:00:06;58.38;;;38.38;;
69890;SDS011;57170;43.964;21.262;2023-12-04T04:02:35;51.10;;;38.40;;
69890;SDS011;57170;43.964;21.262;2023-12-04T04:05:01;45.42;;;32.65;;
69890;SDS011;57170;43.964;21.262;2023-12-04T04:07:27;48.13;;;29.13;;
69890;SDS011;57170;43.964;21.262;2023-12-04T04:09:53;40.45;;;27.40;;
69890;SDS011;57170;43.964;21.262;2023-12-04T04:12:19;43.70;;;27.10;;
69890;SDS011;57170;43.964;21.262;2023-12-04T04:14:45;34.88;;;24.27;;
69890;SDS011;57170;43.964;21.262;2023-12-04T04:17:12;38.42;;;22.05;;
69890;SDS011;57170;43.964;21.262;2023-12-04T04:19:38;33.80;;;23.25;;
69890;SDS011;57170;43.964;21.262;2023-12-04T04:22:04;31.10;;;22.80;;
69890;SDS011;57170;43.964;21.262;2023-12-04T04:24:30;37.28;;;23.77;;
69890;SDS011;57170;43.964;21.262;2023-12-04T04:26:56;36.28;;;23.80;;
69890;SDS011;57170;43.964;21.262;2023-12-04T04:29:22;31.50;;;22.30;;
69890;SDS011;57170;43.964;21.262;2023-12-04T04:31:48;39.13;;;28.13;;
69890;SDS011;57170;43.964;21.262;2023-12-04T04:34:14;47.30;;;29.17;;
69890;SDS011;57170;43.964;21.262;2023-12-04T04:36:40;36.95;;;22.85;;
69890;SDS011;57170;43.964;21.262;2023-12-04T04:39:06;34.25;;;21.38;;
69890;SDS011;57170;43.964;21.262;2023-12-04T04:41:32;28.42;;;20.45;;
69890;SDS011;57170;43.964;21.262;2023-12-04T04:43:59;25.85;;;19.05;;
69890;SDS011;57170;43.964;21.262;2023-12-04T04:46:25;31.88;;;19.77;;
69890;SDS011;57170;43.964;21.262;2023-12-04T04:48:52;33.35;;;22.15;;
69890;SDS011;57170;43.964;21.262;2023-12-04T04:51:18;36.15;;;21.88;;
69890;SDS011;57170;43.964;21.262;2023-12-04T04:53:44;24.88;;;19.00;;
69890;SDS011;57170;43.964;21.262;2023-12-04T04:56:11;28.52;;;19.08;;
69890;SDS011;57170;43.964;21.262;2023-12-04T04:58:37;33.08;;;20.33;;
69890;SDS011;57170;43.964;21.262;2023-12-04T05:01:04;28.75;;;19.95;;
69890;SDS011;57170;43.964;21.262;2023-12-04T05:03:30;31.02;;;20.90;;
69890;SDS011;57170;43.964;21.262;2023-12-04T05:05:56;55.42;;;31.20;;
69890;SDS011;57170;43.964;21.262;2023-12-04T05:08:22;53.45;;;33.00;;
69890;SDS011;57170;43.964;21.262;2023-12-04T05:10:48;34.03;;;22.50;;
69890;SDS011;57170;43.964;21.262;2023-12-04T05:13:14;28.63;;;18.65;;
69890;SDS011;57170;43.964;21.262;2023-12-04T05:15:40;29.20;;;20.27;;
69890;SDS011;57170;43.964;21.262;2023-12-04T05:18:06;31.73;;;21.35;;
69890;SDS011;57170;43.964;21.262;2023-12-04T05:20:32;29.73;;;20.60;;
69890;SDS011;57170;43.964;21.262;2023-12-04T05:22:58;32.70;;;22.00;;
69890;SDS011;57170;43.964;21.262;2023-12-04T05:25:25;42.35;;;26.90;;
69890;SDS011;57170;43.964;21.262;2023-12-04T05:27:51;40.50;;;28.08;;
69890;SDS011;57170;43.964;21.262;2023-12-04T05:30:17;42.70;;;27.77;;
69890;SDS011;57170;43.964;21.262;2023-12-04T05:32:43;36.08;;;23.42;;
69890;SDS011;57170;43.964;21.262;2023-12-04T05:35:09;31.58;;;22.63;;
69890;SDS011;57170;43.964;21.262;2023-12-04T05:37:35;32.22;;;21.63;;
69890;SDS011;57170;43.964;21.262;2023-12-04T05:40:01;32.67;;;22.27;;
69890;SDS011;57170;43.964;21.262;2023-12-04T05:42:30;33.20;;;21.85;;
69890;SDS011;57170;43.964;21.262;2023-12-04T05:44:56;34.55;;;21.77;;
69890;SDS011;57170;43.964;21.262;2023-12-04T05:47:23;32.95;;;21.83;;
69890;SDS011;57170;43.964;21.262;2023-12-04T05:49:49;33.00;;;23.73;;
69890;SDS011;57170;43.964;21.262;2023-12-04T05:52:15;31.35;;;22.70;;
69890;SDS011;57170;43.964;21.262;2023-12-04T05:54:41;32.95;;;22.50;;
69890;SDS011;57170;43.964;21.262;2023-12-04T05:57:07;50.50;;;27.13;;
69890;SDS011;57170;43.964;21.262;2023-12-04T05:59:33;38.35;;;24.13;;
69890;SDS011;57170;43.964;21.262;2023-12-04T06:01:59;49.65;;;29.15;;
69890;SDS011;57170;43.964;21.262;2023-12-04T06:04:26;43.85;;;25.15;;
69890;SDS011;57170;43.964;21.262;2023-12-04T06:06:52;40.80;;;24.80;;
69890;SDS011;57170;43.964;21.262;2023-12-04T06:09:18;34.60;;;21.95;;
69890;SDS011;57170;43.964;21.262;2023-12-04T06:11:44;33.85;;;24.90;;
69890;SDS011;57170;43.964;21.262;2023-12-04T06:14:10;44.65;;;25.27;;
69890;SDS011;57170;43.964;21.262;2023-12-04T06:16:37;54.83;;;32.08;;
69890;SDS011;57170;43.964;21.262;2023-12-04T06:19:03;42.10;;;30.05;;
69890;SDS011;57170;43.964;21.262;2023-12-04T06:21:29;43.40;;;28.83;;
69890;SDS011;57170;43.964;21.262;2023-12-04T06:23:56;41.70;;;28.70;;
69890;SDS011;57170;43.964;21.262;2023-12-04T06:26:22;38.03;;;28.17;;
69890;SDS011;57170;43.964;21.262;2023-12-04T06:28:48;43.38;;;28.80;;
69890;SDS011;57170;43.964;21.262;2023-12-04T06:31:15;47.10;;;30.55;;
69890;SDS011;57170;43.964;21.262;2023-12-04T06:33:41;51.03;;;31.55;;
69890;SDS011;57170;43.964;21.262;2023-12-04T06:36:08;41.40;;;29.42;;
69890;SDS011;57170;43.964;21.262;2023-12-04T06:38:35;43.88;;;30.10;;
69890;SDS011;57170;43.964;21.262;2023-12-04T06:41:02;46.45;;;31.70;;
69890;SDS011;57170;43.964;21.262;2023-12-04T06:43:28;64.05;;;40.03;;
69890;SDS011;57170;43.964;21.262;2023-12-04T06:45:55;45.17;;;30.88;;
69890;SDS011;57170;43.964;21.262;2023-12-04T06:48:23;46.83;;;29.75;;
69890;SDS011;57170;43.964;21.262;2023-12-04T06:50:50;46.33;;;31.17;;
69890;SDS011;57170;43.964;21.262;2023-12-04T06:53:16;47.88;;;31.38;;
69890;SDS011;57170;43.964;21.262;2023-12-04T06:55:42;54.38;;;35.92;;
69890;SDS011;57170;43.964;21.262;2023-12-04T06:58:08;73.43;;;49.70;;
69890;SDS011;57170;43.964;21.262;2023-12-04T07:00:34;60.40;;;37.13;;
69890;SDS011;57170;43.964;21.262;2023-12-04T07:03:00;49.22;;;37.05;;
69890;SDS011;57170;43.964;21.262;2023-12-04T07:05:26;59.95;;;39.40;;
69890;SDS011;57170;43.964;21.262;2023-12-04T07:07:52;58.15;;;38.92;;
69890;SDS011;57170;43.964;21.262;2023-12-04T07:10:18;61.47;;;46.22;;
69890;SDS011;57170;43.964;21.262;2023-12-04T07:12:45;57.50;;;43.53;;
69890;SDS011;57170;43.964;21.262;2023-12-04T07:15:11;55.28;;;40.83;;
69890;SDS011;57170;43.964;21.262;2023-12-04T07:17:37;55.03;;;40.03;;
69890;SDS011;57170;43.964;21.262;2023-12-04T07:20:04;49.35;;;39.38;;
69890;SDS011;57170;43.964;21.262;2023-12-04T07:22:33;42.20;;;33.40;;
69890;SDS011;57170;43.964;21.262;2023-12-04T07:24:59;43.17;;;35.97;;
69890;SDS011;57170;43.964;21.262;2023-12-04T07:27:25;43.38;;;33.53;;
69890;SDS011;57170;43.964;21.262;2023-12-04T07:29:52;54.00;;;41.50;;
69890;SDS011;57170;43.964;21.262;2023-12-04T07:32:18;54.63;;;42.70;;
69890;SDS011;57170;43.964;21.262;2023-12-04T07:34:44;52.05;;;41.75;;
69890;SDS011;57170;43.964;21.262;2023-12-04T07:37:10;39.35;;;32.80;;
69890;SDS011;57170;43.964;21.262;2023-12-04T07:39:37;43.22;;;33.17;;
69890;SDS011;57170;43.964;21.262;2023-12-04T07:42:03;37.13;;;29.70;;
69890;SDS011;57170;43.964;21.262;2023-12-04T07:44:29;37.10;;;32.70;;
69890;SDS011;57170;43.964;21.262;2023-12-04T07:46:55;33.70;;;29.48;;
69890;SDS011;57170;43.964;21.262;2023-12-04T07:49:22;33.38;;;29.48;;
69890;SDS011;57170;43.964;21.262;2023-12-04T07:51:48;38.05;;;31.55;;
69890;SDS011;57170;43.964;21.262;2023-12-04T07:54:14;34.40;;;28.25;;
69890;SDS011;57170;43.964;21.262;2023-12-04T07:56:41;38.38;;;31.85;;
69890;SDS011;57170;43.964;21.262;2023-12-04T07:59:07;38.55;;;34.03;;
69890;SDS011;57170;43.964;21.262;2023-12-04T08:01:34;43.08;;;35.92;;
69890;SDS011;57170;43.964;21.262;2023-12-04T08:04:00;36.40;;;32.45;;
69890;SDS011;57170;43.964;21.262;2023-12-04T08:06:27;40.53;;;33.67;;
69890;SDS011;57170;43.964;21.262;2023-12-04T08:08:53;43.10;;;36.25;;
69890;SDS011;57170;43.964;21.262;2023-12-04T08:11:20;42.40;;;33.70;;
69890;SDS011;57170;43.964;21.262;2023-12-04T08:13:46;38.75;;;34.30;;
69890;SDS011;57170;43.964;21.262;2023-12-04T08:16:13;41.05;;;34.47;;
69890;SDS011;57170;43.964;21.262;2023-12-04T08:18:42;41.22;;;32.45;;
69890;SDS011;57170;43.964;21.262;2023-12-04T08:21:08;42.05;;;33.88;;
69890;SDS011;57170;43.964;21.262;2023-12-04T08:23:35;35.92;;;30.58;;
69890;SDS011;57170;43.964;21.262;2023-12-04T08:26:01;37.25;;;31.27;;
69890;SDS011;57170;43.964;21.262;2023-12-04T08:28:27;32.33;;;28.75;;
69890;SDS011;57170;43.964;21.262;2023-12-04T08:30:53;28.60;;;24.73;;
69890;SDS011;57170;43.964;21.262;2023-12-04T08:33:19;26.70;;;23.48;;
69890;SDS011;57170;43.964;21.262;2023-12-04T08:35:46;28.67;;;25.58;;
69890;SDS011;57170;43.964;21.262;2023-12-04T08:38:16;28.73;;;25.50;;
69890;SDS011;57170;43.964;21.262;2023-12-04T08:40:42;34.20;;;27.23;;
69890;SDS011;57170;43.964;21.262;2023-12-04T08:43:09;29.95;;;25.13;;
69890;SDS011;57170;43.964;21.262;2023-12-04T08:45:35;27.88;;;24.10;;
69890;SDS011;57170;43.964;21.262;2023-12-04T08:48:01;29.52;;;24.92;;
69890;SDS011;57170;43.964;21.262;2023-12-04T08:50:27;30.75;;;25.35;;
69890;SDS011;57170;43.964;21.262;2023-12-04T08:52:53;38.20;;;34.22;;
69890;SDS011;57170;43.964;21.262;2023-12-04T08:55:19;29.08;;;25.83;;
69890;SDS011;57170;43.964;21.262;2023-12-04T08:57:45;30.75;;;27.25;;
69890;SDS011;57170;43.964;21.262;2023-12-04T09:00:12;27.30;;;24.40;;
69890;SDS011;57170;43.964;21.262;2023-12-04T09:02:38;29.05;;;23.83;;
69890;SDS011;57170;43.964;21.262;2023-12-04T09:05:04;29.52;;;23.10;;
69890;SDS011;57170;43.964;21.262;2023-12-04T09:07:31;27.63;;;24.02;;
69890;SDS011;57170;43.964;21.262;2023-12-04T09:09:57;28.95;;;23.90;;
69890;SDS011;57170;43.964;21.262;2023-12-04T09:12:23;31.83;;;23.88;;
69890;SDS011;57170;43.964;21.262;2023-12-04T09:14:49;32.20;;;26.45;;
69890;SDS011;57170;43.964;21.262;2023-12-04T09:17:16;29.48;;;24.02;;
69890;SDS011;57170;43.964;21.262;2023-12-04T09:19:42;34.65;;;26.30;;
69890;SDS011;57170;43.964;21.262;2023-12-04T09:22:08;28.27;;;24.17;;
69890;SDS011;57170;43.964;21.262;2023-12-04T09:24:34;32.63;;;25.35;;
69890;SDS011;57170;43.964;21.262;2023-12-04T09:27:00;31.25;;;25.90;;
69890;SDS011;57170;43.964;21.262;2023-12-04T09:29:27;29.80;;;25.40;;
69890;SDS011;57170;43.964;21.262;2023-12-04T09:31:53;29.70;;;25.00;;
69890;SDS011;57170;43.964;21.262;2023-12-04T09:34:19;29.02;;;24.75;;
69890;SDS011;57170;43.964;21.262;2023-12-04T09:36:49;29.33;;;23.15;;
69890;SDS011;57170;43.964;21.262;2023-12-04T09:39:15;32.05;;;24.63;;
69890;SDS011;57170;43.964;21.262;2023-12-04T09:41:41;30.35;;;22.55;;
69890;SDS011;57170;43.964;21.262;2023-12-04T09:44:08;25.88;;;21.80;;
69890;SDS011;57170;43.964;21.262;2023-12-04T09:46:34;25.42;;;21.60;;
69890;SDS011;57170;43.964;21.262;2023-12-04T09:49:00;24.88;;;21.63;;
69890;SDS011;57170;43.964;21.262;2023-12-04T09:51:28;24.52;;;21.88;;
69890;SDS011;57170;43.964;21.262;2023-12-04T09:53:54;25.70;;;21.75;;
69890;SDS011;57170;43.964;21.262;2023-12-04T09:56:20;26.48;;;21.42;;
69890;SDS011;57170;43.964;21.262;2023-12-04T09:58:48;23.17;;;19.73;;
69890;SDS011;57170;43.964;21.262;2023-12-04T10:01:16;24.83;;;21.48;;
69890;SDS011;57170;43.964;21.262;2023-12-04T10:03:42;24.77;;;21.08;;
69890;SDS011;57170;43.964;21.262;2023-12-04T10:06:08;25.35;;;20.80;;
69890;SDS011;57170;43.964;21.262;2023-12-04T10:08:34;24.20;;;20.45;;
69890;SDS011;57170;43.964;21.262;2023-12-04T10:11:00;21.33;;;19.08;;
69890;SDS011;57170;43.964;21.262;2023-12-04T10:13:27;22.27;;;18.85;;
69890;SDS011;57170;43.964;21.262;2023-12-04T10:15:53;24.80;;;20.27;;
69890;SDS011;57170;43.964;21.262;2023-12-04T10:18:26;23.27;;;18.65;;
69890;SDS011;57170;43.964;21.262;2023-12-04T10:20:55;24.60;;;19.00;;
69890;SDS011;57170;43.964;21.262;2023-12-04T10:23:22;21.48;;;18.20;;
69890;SDS011;57170;43.964;21.262;2023-12-04T10:25:49;22.33;;;18.73;;
69890;SDS011;57170;43.964;21.262;2023-12-04T10:28:16;24.42;;;20.27;;
69890;SDS011;57170;43.964;21.262;2023-12-04T10:30:42;24.38;;;19.00;;
69890;SDS011;57170;43.964;21.262;2023-12-04T10:33:09;20.92;;;17.85;;
69890;SDS011;57170;43.964;21.262;2023-12-04T10:35:35;23.08;;;17.88;;
69890;SDS011;57170;43.964;21.262;2023-12-04T10:38:02;19.27;;;17.20;;
69890;SDS011;57170;43.964;21.262;2023-12-04T10:40:29;18.38;;;16.48;;
69890;SDS011;57170;43.964;21.262;2023-12-04T10:45:37;21.05;;;17.50;;
69890;SDS011;57170;43.964;21.262;2023-12-04T10:48:04;18.92;;;16.92;;
69890;SDS011;57170;43.964;21.262;2023-12-04T10:50:34;20.02;;;16.77;;
69890;SDS011;57170;43.964;21.262;2023-12-04T10:53:03;19.88;;;16.95;;
69890;SDS011;57170;43.964;21.262;2023-12-04T10:55:32;19.15;;;16.33;;
69890;SDS011;57170;43.964;21.262;2023-12-04T10:58:02;20.38;;;18.15;;
69890;SDS011;57170;43.964;21.262;2023-12-04T11:00:35;18.50;;;16.50;;
69890;SDS011;57170;43.964;21.262;2023-12-04T11:03:05;23.30;;;19.90;;
69890;SDS011;57170;43.964;21.262;2023-12-04T11:05:33;21.50;;;18.63;;
69890;SDS011;57170;43.964;21.262;2023-12-04T11:08:02;21.15;;;18.15;;
69890;SDS011;57170;43.964;21.262;2023-12-04T11:10:30;23.90;;;19.13;;
69890;SDS011;57170;43.964;21.262;2023-12-04T11:13:06;21.77;;;19.27;;
69890;SDS011;57170;43.964;21.262;2023-12-04T11:15:35;24.95;;;21.02;;
69890;SDS011;57170;43.964;21.262;2023-12-04T11:18:01;23.63;;;19.17;;
69890;SDS011;57170;43.964;21.262;2023-12-04T11:20:29;23.73;;;20.70;;
69890;SDS011;57170;43.964;21.262;2023-12-04T11:22:56;27.30;;;20.38;;
69890;SDS011;57170;43.964;21.262;2023-12-04T11:25:23;21.42;;;18.90;;
69890;SDS011;57170;43.964;21.262;2023-12-04T11:27:50;21.58;;;18.75;;
69890;SDS011;57170;43.964;21.262;2023-12-04T11:30:17;27.05;;;22.13;;
69890;SDS011;57170;43.964;21.262;2023-12-04T11:32:48;21.60;;;19.30;;
69890;SDS011;57170;43.964;21.262;2023-12-04T11:35:14;24.65;;;19.85;;
69890;SDS011;57170;43.964;21.262;2023-12-04T11:37:43;22.35;;;19.00;;
69890;SDS011;57170;43.964;21.262;2023-12-04T11:40:12;29.08;;;21.85;;
69890;SDS011;57170;43.964;21.262;2023-12-04T11:42:39;24.52;;;21.58;;
69890;SDS011;57170;43.964;21.262;2023-12-04T11:45:05;22.58;;;19.40;;
69890;SDS011;57170;43.964;21.262;2023-12-04T11:50:20;24.15;;;19.20;;
69890;SDS011;57170;43.964;21.262;2023-12-04T11:52:46;24.35;;;18.13;;
69890;SDS011;57170;43.964;21.262;2023-12-04T11:55:15;22.60;;;16.95;;
69890;SDS011;57170;43.964;21.262;2023-12-04T11:57:41;24.42;;;18.95;;
69890;SDS011;57170;43.964;21.262;2023-12-04T12:02:40;25.30;;;19.10;;
69890;SDS011;57170;43.964;21.262;2023-12-04T12:05:06;23.25;;;18.67;;
69890;SDS011;57170;43.964;21.262;2023-12-04T12:07:33;20.95;;;18.15;;
69890;SDS011;57170;43.964;21.262;2023-12-04T12:09:59;24.30;;;18.63;;
69890;SDS011;57170;43.964;21.262;2023-12-04T12:12:26;24.50;;;18.38;;
69890;SDS011;57170;43.964;21.262;2023-12-04T12:14:52;23.63;;;18.63;;
69890;SDS011;57170;43.964;21.262;2023-12-04T12:17:18;23.63;;;18.55;;
69890;SDS011;57170;43.964;21.262;2023-12-04T12:19:45;19.23;;;15.98;;
69890;SDS011;57170;43.964;21.262;2023-12-04T12:22:11;23.00;;;18.20;;
69890;SDS011;57170;43.964;21.262;2023-12-04T12:24:37;23.20;;;19.65;;
69890;SDS011;57170;43.964;21.262;2023-12-04T12:27:04;25.38;;;18.00;;
69890;SDS011;57170;43.964;21.262;2023-12-04T12:29:30;26.42;;;18.17;;
69890;SDS011;57170;43.964;21.262;2023-12-04T12:31:56;23.80;;;18.58;;
69890;SDS011;57170;43.964;21.262;2023-12-04T12:34:22;28.25;;;18.73;;
69890;SDS011;57170;43.964;21.262;2023-12-04T12:36:48;22.80;;;17.38;;
69890;SDS011;57170;43.964;21.262;2023-12-04T12:39:14;22.45;;;16.08;;
69890;SDS011;57170;43.964;21.262;2023-12-04T12:41:50;21.52;;;16.17;;
69890;SDS011;57170;43.964;21.262;2023-12-04T12:44:16;18.70;;;14.23;;
69890;SDS011;57170;43.964;21.262;2023-12-04T12:46:46;21.40;;;15.60;;
69890;SDS011;57170;43.964;21.262;2023-12-04T12:49:19;18.40;;;12.95;;
69890;SDS011;57170;43.964;21.262;2023-12-04T12:51:46;18.90;;;12.57;;
69890;SDS011;57170;43.964;21.262;2023-12-04T12:54:12;18.50;;;13.65;;
69890;SDS011;57170;43.964;21.262;2023-12-04T12:56:39;15.32;;;12.73;;
69890;SDS011;57170;43.964;21.262;2023-12-04T12:59:05;16.40;;;12.82;;
69890;SDS011;57170;43.964;21.262;2023-12-04T13:01:32;17.05;;;12.02;;
69890;SDS011;57170;43.964;21.262;2023-12-04T13:03:59;15.10;;;12.05;;
69890;SDS011;57170;43.964;21.262;2023-12-04T13:06:25;18.15;;;12.65;;
69890;SDS011;57170;43.964;21.262;2023-12-04T13:08:52;16.13;;;11.13;;
69890;SDS011;57170;43.964;21.262;2023-12-04T13:11:18;14.52;;;10.50;;
69890;SDS011;57170;43.964;21.262;2023-12-04T13:13:44;15.65;;;11.20;;
69890;SDS011;57170;43.964;21.262;2023-12-04T13:16:10;14.63;;;12.00;;
69890;SDS011;57170;43.964;21.262;2023-12-04T13:18:36;20.60;;;11.95;;
69890;SDS011;57170;43.964;21.262;2023-12-04T13:21:04;19.38;;;13.20;;
69890;SDS011;57170;43.964;21.262;2023-12-04T13:23:30;16.17;;;12.38;;
69890;SDS011;57170;43.964;21.262;2023-12-04T13:25:56;20.55;;;13.88;;
69890;SDS011;57170;43.964;21.262;2023-12-04T13:28:22;18.13;;;13.60;;
69890;SDS011;57170;43.964;21.262;2023-12-04T13:30:48;17.77;;;12.75;;
69890;SDS011;57170;43.964;21.262;2023-12-04T13:33:14;18.77;;;12.52;;
69890;SDS011;57170;43.964;21.262;2023-12-04T13:35:40;18.60;;;11.90;;
69890;SDS011;57170;43.964;21.262;2023-12-04T13:38:07;24.35;;;18.08;;
69890;SDS011;57170;43.964;21.262;2023-12-04T13:40:38;14.40;;;11.25;;
69890;SDS011;57170;43.964;21.262;2023-12-04T13:43:05;15.10;;;12.00;;
69890;SDS011;57170;43.964;21.262;2023-12-04T13:45:50;14.52;;;11.02;;
69890;SDS011;57170;43.964;21.262;2023-12-04T13:48:17;11.73;;;9.90;;
69890;SDS011;57170;43.964;21.262;2023-12-04T13:50:46;15.70;;;10.73;;
69890;SDS011;57170;43.964;21.262;2023-12-04T13:53:15;15.55;;;11.27;;
69890;SDS011;57170;43.964;21.262;2023-12-04T13:55:41;13.43;;;11.40;;
69890;SDS011;57170;43.964;21.262;2023-12-04T13:58:19;15.90;;;10.27;;
69890;SDS011;57170;43.964;21.262;2023-12-04T14:01:03;14.43;;;9.57;;
69890;SDS011;57170;43.964;21.262;2023-12-04T14:03:38;13.38;;;10.32;;
69890;SDS011;57170;43.964;21.262;2023-12-04T14:06:05;15.25;;;11.00;;
69890;SDS011;57170;43.964;21.262;2023-12-04T14:08:31;19.83;;;13.55;;
69890;SDS011;57170;43.964;21.262;2023-12-04T14:10:57;20.92;;;13.13;;
69890;SDS011;57170;43.964;21.262;2023-12-04T14:13:23;20.58;;;13.55;;